首页
METAR-TAF:

METAR-TAF

机场 :

格林斯伯勒, 北卡罗来纳州, 美国

纬度: 36-05-51N, 经度: 079-56-37W, 海拔: 282米

当前天气观测

该预报发布于19分钟前的18:54 UTC
风速11节,风向西转西南
温度 14°C
湿度 72%
气压 1019 hPa
能見度: 16.1公里
多云层高于2100英尺
多云层高于5000英尺
阴天层高于8500英尺
小雨

METAR: KGSO 181854Z 24011KT 10SM -RA BKN021 BKN050 OVC085 14/09 A3010 RMK AO2 RAB51 SLP193 P0000 T01390094

时间: 14:13 (19:13 UTC)

预报

该预报发布于1小时和33分钟前的17:40 UTC
预报有效从18日的 18点(UTC)到 19日的 18点(UTC)
风速8节,风向南转西南
能見度: 10公里
多云层高于1500英尺
阴天层高于4000英尺
短暂存在
从 18日的 19点(UTC)到 18日的 21点(UTC)
散云层高于1500英尺
散云层高于2500英尺
多云层高于4000英尺
从 18日的 2330点(UTC)
风速5节,风向南转西南
能見度: 8.0公里
多云层高于700英尺
阴天层高于2000英尺
小阵雨, 轻雾
从 19日的 0100点(UTC)
风速5节,风向西转西南
能見度: 3.2公里
阴天层高于500英尺
小阵雨, 轻雾
从 19日的 0730点(UTC)
风速8节,风向北转西北,有时为16节阵风
能見度: 9.7公里
多云层高于2000英尺
阴天层高于5000英尺
小雨
从 19日的 0930点(UTC)
风速10节,风向,有时为18节阵风
能見度: 10公里
多云层高于5000英尺
阴天层高于8000英尺

TAF: KGSO 181740Z 1818/1918 21008KT P6SM BKN015 OVC040 TEMPO 1819/1821 SCT015 SCT025 BKN040 FM182330 21005KT 5SM -SHRA BR BKN007 OVC020 FM190100 24005KT 2SM -SHRA BR OVC005 FM190730 34008G16KT 6SM -RA BKN020 OVC050 FM190930 36010G18KT P6SM BKN050 OVC080

超过4000个机场的气象观测和天气预报(METAR&TAF报告)。

可查询的气象台以黄色和红色小点在地图上表示。

将鼠标移到小点上方,可查看气象台名称。

然后点击查看天气观测和预报。

如需切换地图:点击带黑十字的绿色按钮放大地图;点击带横线的绿色按钮缩小地图;或者点击绿色箭头查看邻近地区的地图。


METAR-TAF: